Weather History for K4M9 - December, 2013

Change the Weather History Date:

Monday, December 9, 2013

  Actual Average (KARG) Record (KARG)
Temperature  
Mean Temperature 30 °F -  
Max Temperature 32 °F 48 °F 66 °F (2012)
Min Temperature 28 °F 33 °F 10 °F (2005)
Degree Days  
Heating Degree Days 35    
Moisture  
Dew Point 25 °F    
Average Humidity 83    
Maximum Humidity 100    
Minimum Humidity 69    
Precipitation  
Precipitation 0.00 in - - ()
Sea Level Pressure  
Sea Level Pressure 30.26 in    
Wind  
Wind Speed 5 mph (NNW)    
Max Wind Speed 10 mph    
Max Gust Speed -    
Visibility 8 miles    
Events      
Averages and records for this station are not official NWS values.
T = Trace of Precipitation, MM = Missing Value Source: NWS Daily Summary

Daily Weather History Graph

Daily Weather History Graph

Search for Another Location

Airport or City:

Trip Planner

Search our weather history database for the weather conditions in past years. The results will help you decide how hot, cold, wet, or windy it might be!

Date:

Astronomy

Dec. 09, 2013 Rise Set
Actual Time 7:02 AM CST 4:47 PM CST
Civil Twilight 6:34 AM CST 5:15 PM CST
Nautical Twilight 6:02 AM CST 5:48 PM CST
Astronomical Twilight 5:30 AM CST 6:19 PM CST
Moon 12:05 PM CST (12/9) No Moon Set
Length of Visible Light 10h 41m
Length of Day
9h 44m
Waxing Crescent, 51% of the Moon is Illuminated
Dec 9
Waxing Crescent
Dec 17
Full
Dec 25
Last Quarter
Jan 1
New
Jan 7
First Quarter

Hourly Weather History & Observations

Time (CST) Temp. Windchill Dew Point Humidity Pressure Visibility Wind Dir Wind Speed Gust Speed Precip Events Conditions
12:15 AM 28.4 °F 22.2 °F 26.6 °F 93% 30.17 in 5.0 mi WSW 5.8 mph - N/A   Overcast
12:35 AM 28.4 °F 22.2 °F 26.6 °F 93% 30.17 in 4.0 mi WSW 5.8 mph - N/A   Overcast
12:55 AM 28.4 °F 22.2 °F 26.6 °F 93% 30.18 in 5.0 mi WSW 5.8 mph - N/A   Overcast
1:15 AM 28.4 °F 22.2 °F 26.6 °F 93% 30.18 in 4.0 mi West 5.8 mph - N/A   Overcast
1:35 AM 28.4 °F 22.2 °F 26.6 °F 93% 30.19 in 3.0 mi West 5.8 mph - N/A   Overcast
1:55 AM 28.4 °F 22.2 °F 26.6 °F 93% 30.19 in 4.0 mi West 5.8 mph - N/A   Overcast
2:15 AM 28.4 °F 24.6 °F 26.6 °F 93% 30.19 in 4.0 mi West 3.5 mph - N/A   Overcast
2:35 AM 28.4 °F 24.6 °F 26.6 °F 93% 30.20 in 3.0 mi West 3.5 mph - N/A   Overcast
2:55 AM 28.4 °F 24.6 °F 28.4 °F 100% 30.20 in 4.0 mi SW 3.5 mph - N/A   Overcast
3:15 AM 28.4 °F 24.6 °F 28.4 °F 100% 30.20 in 4.0 mi SW 3.5 mph - N/A   Overcast
3:35 AM 28.4 °F 24.6 °F 28.4 °F 100% 30.20 in 3.0 mi WSW 3.5 mph - N/A   Overcast
3:55 AM 28.4 °F 24.6 °F 28.4 °F 100% 30.20 in 3.0 mi SW 3.5 mph - N/A   Overcast
4:15 AM 28.4 °F 23.3 °F 28.4 °F 100% 30.20 in 4.0 mi West 4.6 mph - N/A   Overcast
4:35 AM 28.4 °F 23.3 °F 26.6 °F 93% 30.20 in 6.0 mi West 4.6 mph - N/A   Overcast
4:55 AM 28.4 °F 24.6 °F 26.6 °F 93% 30.21 in 5.0 mi West 3.5 mph - N/A   Overcast
5:15 AM 28.4 °F 24.6 °F 26.6 °F 93% 30.21 in 6.0 mi West 3.5 mph - N/A   Overcast
5:35 AM 30.2 °F - 26.6 °F 86% 30.21 in 7.0 mi Calm Calm - N/A   Overcast
5:55 AM 28.4 °F - 26.6 °F 93% 30.22 in 6.0 mi Calm Calm - N/A   Overcast
6:15 AM 28.4 °F - 26.6 °F 93% 30.23 in 7.0 mi Calm Calm - N/A   Overcast
6:35 AM 30.2 °F 26.7 °F 26.6 °F 86% 30.24 in 9.0 mi NW 3.5 mph - N/A   Overcast
6:55 AM 28.4 °F 24.6 °F 26.6 °F 93% 30.25 in 7.0 mi WNW 3.5 mph - N/A   Overcast
7:15 AM 30.2 °F - 26.6 °F 86% 30.26 in 6.0 mi Calm Calm - N/A   Overcast
7:35 AM 30.2 °F 26.7 °F 26.6 °F 86% 30.26 in 7.0 mi West 3.5 mph - N/A   Overcast
7:55 AM 30.2 °F 25.4 °F 26.6 °F 86% 30.27 in 8.0 mi West 4.6 mph - N/A   Overcast
8:15 AM 30.2 °F - 26.6 °F 86% 30.27 in 8.0 mi Calm Calm - N/A   Overcast
8:35 AM 32.0 °F 26.4 °F 26.6 °F 80% 30.27 in 9.0 mi North 5.8 mph - N/A   Overcast
8:55 AM 32.0 °F 25.6 °F 26.6 °F 80% 30.30 in 10.0 mi NNW 6.9 mph - N/A   Overcast
9:15 AM 32.0 °F 26.4 °F 26.6 °F 80% 30.31 in 10.0 mi North 5.8 mph - N/A   Overcast
9:35 AM 32.0 °F 27.5 °F 26.6 °F 80% 30.31 in 10.0 mi North 4.6 mph - N/A   Overcast
9:55 AM 32.0 °F 24.8 °F 24.8 °F 75% 30.32 in 10.0 mi NNW 8.1 mph - N/A   Unknown
10:15 AM 32.0 °F 25.6 °F 24.8 °F 75% 30.33 in 10.0 mi North 6.9 mph - N/A   Unknown
10:35 AM 32.0 °F 23.6 °F 23.0 °F 69% 30.32 in 10.0 mi NNW 10.4 mph - N/A   Unknown
10:55 AM 32.0 °F 25.6 °F 23.0 °F 69% 30.33 in 10.0 mi North 6.9 mph - N/A   Unknown
11:15 AM 32.0 °F 25.6 °F 23.0 °F 69% 30.32 in 10.0 mi North 6.9 mph - N/A   Unknown
11:35 AM 32.0 °F 24.2 °F 23.0 °F 69% 30.31 in 10.0 mi North 9.2 mph - N/A   Unknown
11:55 AM 32.0 °F 24.8 °F 23.0 °F 69% 30.31 in 10.0 mi NW 8.1 mph - N/A   Unknown
12:15 PM 32.0 °F 24.2 °F 23.0 °F 69% 30.31 in 10.0 mi NNW 9.2 mph - N/A   Unknown
12:35 PM 32.0 °F 24.8 °F 23.0 °F 69% 30.29 in 10.0 mi NNW 8.1 mph - N/A   Unknown
12:55 PM 32.0 °F 25.6 °F 24.8 °F 75% 30.28 in 10.0 mi NW 6.9 mph - N/A   Unknown
1:15 PM 32.0 °F 24.8 °F 24.8 °F 75% 30.28 in 10.0 mi North 8.1 mph - N/A   Unknown
1:35 PM 32.0 °F 24.8 °F 24.8 °F 75% 30.28 in 10.0 mi North 8.1 mph - N/A   Unknown
1:55 PM 32.0 °F 24.2 °F 23.0 °F 69% 30.27 in 10.0 mi North 9.2 mph - N/A   Unknown
2:15 PM 32.0 °F 25.6 °F 23.0 °F 69% 30.26 in 10.0 mi NNE 6.9 mph - N/A   Unknown
2:35 PM 32.0 °F 25.6 °F 24.8 °F 75% 30.26 in 10.0 mi NE 6.9 mph - N/A   Unknown
2:55 PM 32.0 °F 26.4 °F 24.8 °F 75% 30.26 in 10.0 mi NE 5.8 mph - N/A   Unknown
3:15 PM 32.0 °F 27.5 °F 24.8 °F 75% 30.26 in 10.0 mi NE 4.6 mph - N/A   Partly Cloudy
3:35 PM 32.0 °F 27.5 °F 24.8 °F 75% 30.26 in 10.0 mi ENE 4.6 mph - N/A   Clear
3:55 PM 32.0 °F 26.4 °F 24.8 °F 75% 30.27 in 10.0 mi NE 5.8 mph - N/A   Clear
4:15 PM 32.0 °F 27.5 °F 24.8 °F 75% 30.26 in 10.0 mi NE 4.6 mph - N/A   Clear
4:35 PM 30.2 °F 24.3 °F 24.8 °F 80% 30.27 in 10.0 mi East 5.8 mph - N/A   Clear
4:55 PM 30.2 °F 24.3 °F 24.8 °F 80% 30.27 in 10.0 mi East 5.8 mph - N/A   Clear
5:15 PM 28.4 °F 21.2 °F 24.8 °F 86% 30.26 in 10.0 mi East 6.9 mph - N/A   Clear
5:35 PM 28.4 °F 22.2 °F 24.8 °F 86% 30.26 in 10.0 mi East 5.8 mph - N/A   Clear
5:55 PM 28.4 °F 23.3 °F 24.8 °F 86% 30.26 in 10.0 mi ENE 4.6 mph - N/A   Partly Cloudy
6:15 PM 30.2 °F 25.4 °F 24.8 °F 80% 30.27 in 10.0 mi NE 4.6 mph - N/A   Partly Cloudy
6:35 PM 28.4 °F 19.7 °F 24.8 °F 86% 30.25 in 10.0 mi NE 9.2 mph - N/A   Partly Cloudy
6:55 PM 30.2 °F 24.3 °F 24.8 °F 80% 30.26 in 10.0 mi NNE 5.8 mph - N/A   Mostly Cloudy
7:15 PM 30.2 °F 24.3 °F 24.8 °F 80% 30.25 in 10.0 mi NE 5.8 mph - N/A   Overcast
7:35 PM 30.2 °F 25.4 °F 24.8 °F 80% 30.29 in 10.0 mi ENE 4.6 mph - N/A   Overcast
7:55 PM 30.2 °F 23.4 °F 24.8 °F 80% 30.27 in 10.0 mi ENE 6.9 mph - N/A   Overcast
8:15 PM 28.4 °F 21.2 °F 24.8 °F 86% 30.27 in 10.0 mi NNE 6.9 mph - N/A   Overcast
8:35 PM 28.4 °F 24.6 °F 24.8 °F 86% 30.29 in 10.0 mi NNE 3.5 mph - N/A   Overcast
8:55 PM 28.4 °F - 24.8 °F 86% 30.29 in 10.0 mi Calm Calm - N/A   Overcast
9:15 PM 28.4 °F 21.2 °F 24.8 °F 86% 30.29 in 10.0 mi North 6.9 mph - N/A   Overcast
9:35 PM 28.4 °F 19.7 °F 24.8 °F 86% 30.28 in 10.0 mi North 9.2 mph - N/A   Overcast
9:55 PM 28.4 °F 19.7 °F 24.8 °F 86% 30.28 in 10.0 mi North 9.2 mph - N/A   Overcast
10:15 PM 28.4 °F 20.4 °F 23.0 °F 80% 30.28 in 10.0 mi NNE 8.1 mph - N/A   Overcast
10:35 PM 28.4 °F 24.6 °F 23.0 °F 80% 30.28 in 10.0 mi NNE 3.5 mph - N/A   Overcast
10:55 PM 28.4 °F 23.3 °F 21.2 °F 74% 30.29 in 10.0 mi North 4.6 mph - N/A   Overcast
11:15 PM 28.4 °F 21.2 °F 21.2 °F 74% 30.30 in 10.0 mi North 6.9 mph - N/A   Overcast
11:35 PM 28.4 °F 20.4 °F 19.4 °F 69% 30.30 in 10.0 mi NNW 8.1 mph - N/A   Overcast
11:55 PM 28.4 °F 20.4 °F 19.4 °F 69% 30.29 in 10.0 mi North 8.1 mph - N/A   Overcast